Miami — WDF6958 — position and weather

sailwx.info

Track history (hours):
 
Tides and Currents Weather Stations Pressure Air Temp Water Temp Dewpoint Dewpoint Depression Visibility Wind Speed Wind Dir Waves Ship Positions

Miami

Owner: Kirby Inland Marine LP, Houston, TX. More information available from US FCC via Universal Licensing System and Coast Guard Vessel Documentation Center.

Last reported at 2015-Mar-27 16:14 UTC. Time now 2015-Apr-01 14:27 UTC.
Position N 25°46' W 080°09'.

Length 23 m; draft 4 m.

Type: Other ship. MMSI: 367479630.

Date/timePositionNaut miles runAvg speedWind from/ knotsBaromVisibWave heightAir tempDewpointWater temp
2015-Mar-27 16:14N 25°46' W 080°09'0 0.0
2015-Mar-26 21:06N 25°46' W 080°09'1 0.1
2015-Mar-26 00:14N 25°46' W 080°07'2 0.2
2015-Mar-25 17:33N 25°46' W 080°09'1 0.3
2015-Mar-25 15:27N 25°46' W 080°08'  
2015-Mar-23 10:17N 25°46' W 080°08'1 0.2
2015-Mar-23 06:33N 25°46' W 080°08'0 0.0
2015-Mar-23 02:07N 25°46' W 080°08'0 0.0
2015-Mar-22 21:17N 25°46' W 080°08'0 0.0
2015-Mar-22 20:20N 25°46' W 080°08'2 0.2
2015-Mar-22 12:25N 25°46' W 080°11'0 0.0
2015-Mar-22 11:33N 25°46' W 080°11'3 1.6
2015-Mar-22 09:33N 25°45' W 080°07'3 1.6
2015-Mar-22 07:28N 25°46' W 080°11'0 0.0
2015-Mar-22 06:31N 25°46' W 080°11'1 0.0
2015-Mar-21 12:28N 25°46' W 080°10'0 0.1
2015-Mar-21 11:30N 25°46' W 080°10'1 0.7
2015-Mar-21 10:18N 25°46' W 080°11'0 0.0
2015-Mar-21 09:29N 25°46' W 080°11'2 0.1
2015-Mar-20 19:32N 25°46' W 080°09'0 0.1
2015-Mar-20 18:31N 25°46' W 080°09'2 1.6
2015-Mar-20 17:21N 25°47' W 080°10'0 0.0
2015-Mar-20 16:33N 25°47' W 080°10'2 1.2
2015-Mar-20 14:33N 25°46' W 080°08'1 0.6
2015-Mar-20 13:33N 25°46' W 080°09'2 1.9
2015-Mar-20 12:33N 25°47' W 080°10'1 0.8
2015-Mar-20 11:33N 25°46' W 080°10'0 0.1
2015-Mar-20 10:29N 25°46' W 080°10'1 0.1
2015-Mar-20 00:06N 25°46' W 080°09'0 0.0
2015-Mar-19 17:14N 25°46' W 080°09'  
Track history (hours):
 
Tides and Currents Weather Stations Pressure Air Temp Water Temp Dewpoint Dewpoint Depression Visibility Wind Speed Wind Dir Waves Ship Positions

Miami

Owner: Kirby Inland Marine LP, Houston, TX. More information available from US FCC via Universal Licensing System and Coast Guard Vessel Documentation Center.

Last reported at 2015-Mar-27 16:14 UTC. Time now 2015-Apr-01 14:27 UTC.
Position N 25°46' W 080°09'.

Length 23 m; draft 4 m.

Type: Other ship. MMSI: 367479630.

Date/timePositionNaut miles runAvg speedWind from/ knotsBaromVisibWave heightAir tempDewpointWater temp
2015-Mar-27 16:14N 25°46' W 080°09'0 0.0
2015-Mar-26 21:06N 25°46' W 080°09'1 0.1
2015-Mar-26 00:14N 25°46' W 080°07'2 0.2
2015-Mar-25 17:33N 25°46' W 080°09'1 0.3
2015-Mar-25 15:27N 25°46' W 080°08'  
2015-Mar-23 10:17N 25°46' W 080°08'1 0.2
2015-Mar-23 06:33N 25°46' W 080°08'0 0.0
2015-Mar-23 02:07N 25°46' W 080°08'0 0.0
2015-Mar-22 21:17N 25°46' W 080°08'0 0.0
2015-Mar-22 20:20N 25°46' W 080°08'2 0.2
2015-Mar-22 12:25N 25°46' W 080°11'0 0.0
2015-Mar-22 11:33N 25°46' W 080°11'3 1.6
2015-Mar-22 09:33N 25°45' W 080°07'3 1.6
2015-Mar-22 07:28N 25°46' W 080°11'0 0.0
2015-Mar-22 06:31N 25°46' W 080°11'1 0.0
2015-Mar-21 12:28N 25°46' W 080°10'0 0.1
2015-Mar-21 11:30N 25°46' W 080°10'1 0.7
2015-Mar-21 10:18N 25°46' W 080°11'0 0.0
2015-Mar-21 09:29N 25°46' W 080°11'2 0.1
2015-Mar-20 19:32N 25°46' W 080°09'0 0.1
2015-Mar-20 18:31N 25°46' W 080°09'2 1.6
2015-Mar-20 17:21N 25°47' W 080°10'0 0.0
2015-Mar-20 16:33N 25°47' W 080°10'2 1.2
2015-Mar-20 14:33N 25°46' W 080°08'1 0.6
2015-Mar-20 13:33N 25°46' W 080°09'2 1.9
2015-Mar-20 12:33N 25°47' W 080°10'1 0.8
2015-Mar-20 11:33N 25°46' W 080°10'0 0.1
2015-Mar-20 10:29N 25°46' W 080°10'1 0.1
2015-Mar-20 00:06N 25°46' W 080°09'0 0.0
2015-Mar-19 17:14N 25°46' W 080°09'  

Dump ship's entire track history